Domov               UVHVVR             MKGP            O straneh              
ZDRAVSTVENO VARSTVO RASTLIN
  MREŽA AGROMET. POSTAJ
 ► PROGNOSTIČNA OBVESTILA
AGROMETEOROLOŠKI PODATKI -
ARSO
OBVLADOVANJE TVEGANJ ZARADI
NEUGODNIH VREMENSKIH RAZMER
  ► NARAVNE NESREČE
  ► SUŠA/MOČA
  ► NAMAKANJE
  ► ŽLED (gozdarstvo)
KARTOGRAFSKI PRIKAZI
SPLETNE POVEZAVE
PROJEKTI IN PUBLIKACIJE

AGROMETEOROLOŠKA MREŽA: VREMENSKE POSTAJE IN FENOLOŠKA OPAZOVANJA

Pregled podatkov za lokacijo Kovor, meteorološka postaja 45235

Pregled senzorjev na lokaciji

ID Ime Zadnja
vrednost
Datum
zadnje
spremembe
Tip
senzorja
4348 Sončno sevanje (W/m2) 323,43 W/m2 26.3.2019 17:59 Pyranometer SP-Lite
4351 Omočenost lista (U) 0 U 26.3.2019 18:00 A730WET
4345 Padavine (mm) 0 mm 26.3.2019 18:00 Rain-O-Matic
4347 Relativna vlaga 2 m (% RH) 29,99 % RH 26.3.2019 17:59 50YA
4350 Relativna vlaga 20 cm (% RH) 35 % RH 26.3.2019 18:00 50YA
4352 Temperatura tal 5 cm (°C) 8,28 °C 26.3.2019 17:59 99TG411E
4346 Temperatura 2 m (°C) 10,62 °C 26.3.2019 18:00 50YA
4349 Temperatura 20 cm (°C) 10,57 °C 26.3.2019 18:00 50YA

Pregled podatkov zadnjih 24 ur

Zap.
št.
Datum in čas Kovor
Sončno
sevanje
Omočenost
lista
Padavine Relativna
vlaga
2
m
Relativna
vlaga
20
cm
Temperatura
tal
5
cm
Temperatura
2
m
Temperatura
20
cm
1 26.3.2019 17:30
2 26.3.2019 17:00 323,4 0 0 30 35 8,3 10,6 10,6
3 26.3.2019 16:30 363,1 0 0 30,8 35,9 8,2 10,7 10,9
4 26.3.2019 16:00 522,4 0 0 31,8 36,5 8,1 11,2 11,9
5 26.3.2019 15:30 701,1 0 0 31,9 37,9 7,9 11,3 12,4
6 26.3.2019 15:00 773,7 0 0 33,3 38,7 7,8 11,2 12,2
7 26.3.2019 14:30 780,9 0 0 34,2 40,6 7,7 10,8 11,8
8 26.3.2019 14:00 911,1 0 0 37,7 43,2 7,6 11 12,3
9 26.3.2019 13:30 956 0 0 38,4 44,2 7,5 10,5 11,7
10 26.3.2019 13:00 983,1 0 0 40,3 46,8 7,3 10,1 11,5
11 26.3.2019 12:30 986,4 0 0 40,9 47,1 7,1 9,7 11,1
12 26.3.2019 12:00 957,7 0 0 41,9 48,1 7 9,5 10,8
13 26.3.2019 11:30 915,1 0 0 43,3 50,4 6,9 8,8 10,1
14 26.3.2019 11:00 855,3 0 0 44,7 50,5 6,8 8,6 9,8
15 26.3.2019 10:30 715 0 0 45,2 51,4 6,6 7,8 8,7
16 26.3.2019 10:00 646,1 0 0 46,1 53,4 6,5 6,8 7,3
17 26.3.2019 09:30 498,1 0 0 44,9 52,5 6,5 6,2 6,3
18 26.3.2019 09:00 354 0 0 47,5 55,1 6,5 5,6 5,5
19 26.3.2019 08:30 336,1 0 0 50,5 58,3 6,6 5,6 5,6
20 26.3.2019 08:00 290,1 0 0 52,8 61 6,7 5,4 5,3
21 26.3.2019 07:30 155,3 0 0 60,2 68,5 6,6 4,3 3,7
22 26.3.2019 07:00 57,8 0 0 64,6 73,3 6,6 3,3 2,2
23 26.3.2019 06:30 21,8 1 0 74,1 80,2 6,6 2,5 1,4
24 26.3.2019 06:00 2,1 6 0 96,1 96,2 6,6 0,9 0,2
25 26.3.2019 05:30 1,5 6 0 96,4 96,6 6,7 1,1 0,6
26 26.3.2019 05:00 1,5 6 0 96,2 96,4 6,8 1,3 0,9
27 26.3.2019 04:30 1,4 6 0 95,6 96 6,9 1,4 1,1
28 26.3.2019 04:00 1,4 7 0 95,3 95,8 6,9 1,6 1,4
29 26.3.2019 03:30 1,5 8 0 94,6 95,3 7 1,8 1,5
30 26.3.2019 03:00 1,5 7 0 94,4 95,2 7 1,8 1,7
31 26.3.2019 02:30 1,5 7 0,2 93,6 94,2 7,1 2 1,8
32 26.3.2019 02:00 1,4 8 0 93,8 94,6 7,1 1,9 1,9
33 26.3.2019 01:30 1,4 8 0,2 93,9 94,6 7,2 1,9 1,9
34 26.3.2019 01:00 1,5 7 0,2 93,6 94,2 7,2 1,9 1,9
35 26.3.2019 00:30 1,5 8 0,2 94,4 94,6 7,3 1,9 1,9
36 26.3.2019 00:00 1,5 8 0,2 94,8 95,2 7,3 1,9 1,9
37 25.3.2019 23:30 1,4 8 0,2 94 94,6 7,4 1,8 1,8
38 25.3.2019 23:00 1,5 7 0,2 93,6 94,2 7,5 2 2
39 25.3.2019 22:30 1,5 7 0,2 93 94 7,5 2,3 2,3
40 25.3.2019 22:00 1,4 6 0,8 89,3 92,2 7,7 2,9 2,7
41 25.3.2019 21:30 1,4 5 0,6 85,1 89,6 7,8 3,1 2,8
42 25.3.2019 21:00 1,4 6 0,6 82,5 87,6 7,9 3,4 3
43 25.3.2019 20:30 1,4 6 0,4 81,8 87,2 8 3,8 3,4
44 25.3.2019 20:00 1,4 8 0,4 83,2 88,7 8,1 3,9 3,5
45 25.3.2019 19:30 1,4 8 0,4 80,8 86,2 8,3 4,5 4
46 25.3.2019 19:00 1,4 9 0,6 79,8 85,3 8,4 4,9 4,4
47 25.3.2019 18:30 1,4 9 1,2 81,1 87,2 8,6 5,4 4,8
48 25.3.2019 18:00 1,5 8 1,2 81,1 90,3 8,8 6,5 5,7
© 2011 Ministrstvo za kmetijstvo, gozdarstvo in prehrano. Vse pravice pridržane.